createdAt,value
2018-12-03T21:07:06.907Z,23.17
2018-12-03T21:09:42.238Z,20.03
2018-12-03T21:12:10.686Z,24.13
2018-12-03T21:14:39.157Z,14.43
2018-12-03T21:17:07.694Z,20.30
2018-12-03T21:19:36.175Z,19.27
2018-12-03T21:22:04.647Z,15.43
2018-12-03T21:24:33.148Z,22.87
2018-12-03T21:27:01.625Z,22.10
2018-12-03T21:29:30.115Z,13.63
2018-12-03T21:31:58.565Z,23.07
2018-12-03T21:34:27.029Z,22.63
2018-12-03T21:36:55.492Z,23.70
2018-12-03T21:39:23.942Z,21.23
2018-12-03T21:41:52.420Z,21.50
2018-12-03T21:44:20.867Z,23.27
2018-12-03T21:46:49.363Z,18.53
2018-12-03T21:49:17.845Z,21.33
2018-12-03T21:51:46.325Z,21.77
2018-12-03T21:54:14.779Z,29.13
2018-12-03T21:56:43.263Z,20.20
2018-12-03T21:59:11.730Z,21.90
2018-12-03T22:01:40.200Z,29.70
2018-12-03T22:04:08.663Z,27.33
2018-12-03T22:06:37.148Z,27.23
2018-12-03T22:09:06.625Z,24.67
2018-12-03T22:11:35.144Z,19.57
2018-12-03T22:14:06.510Z,22.57
2018-12-03T22:16:34.990Z,26.43
2018-12-03T22:19:03.445Z,24.50
2018-12-03T22:21:32.998Z,24.50
2018-12-03T22:24:01.486Z,22.33
2018-12-03T22:26:29.986Z,21.73
2018-12-03T22:28:58.440Z,18.90
2018-12-03T22:31:26.905Z,23.47
2018-12-03T22:33:55.391Z,22.33
2018-12-03T22:36:23.867Z,24.10
2018-12-03T22:38:52.313Z,24.20
2018-12-03T22:41:20.805Z,19.57
2018-12-03T22:43:49.285Z,24.67
2018-12-03T22:46:17.786Z,22.40
2018-12-03T22:48:46.233Z,22.33
2018-12-03T22:51:14.734Z,18.37
2018-12-03T22:53:59.620Z,24.43
2018-12-03T22:56:28.099Z,21.70
2018-12-03T22:58:56.559Z,30.67
2018-12-03T23:01:25.032Z,20.10
2018-12-03T23:03:53.470Z,23.80
2018-12-03T23:06:21.957Z,29.17
2018-12-03T23:08:50.450Z,27.93
2018-12-03T23:11:18.928Z,21.53
2018-12-03T23:13:47.377Z,29.73
2018-12-03T23:16:16.249Z,25.00
2018-12-03T23:18:44.729Z,27.53
2018-12-03T23:21:13.192Z,22.73
2018-12-03T23:23:41.686Z,37.27
2018-12-03T23:26:10.132Z,31.47
2018-12-03T23:28:38.614Z,33.23
2018-12-03T23:31:07.098Z,23.63
2018-12-03T23:33:35.574Z,27.67
2018-12-03T23:36:04.068Z,11.97
2018-12-03T23:38:32.552Z,6.73
2018-12-03T23:41:00.996Z,4.03
2018-12-03T23:43:29.517Z,7.87
2018-12-03T23:45:57.958Z,7.07
2018-12-03T23:48:26.429Z,3.20
2018-12-03T23:50:54.880Z,5.13
2018-12-03T23:53:23.352Z,2.17
2018-12-03T23:55:51.809Z,2.30
2018-12-03T23:58:20.290Z,5.10
